Flight Track Log - Related Links

Times and Time Zones

All times are in EDT time to prevent confusion due to time zone crossing. See the UAL1038 flight status page for this flight to view local times or setup timezone preferences in your user account.

Time Position Orientation Groundspeed Altitude Reporting Facility
EDT Latitude Longitude Course Direction KTS MPH feet Rate Location/Type
Tue 01:55:29 AM 33.9328 -118.4472 29° Northeast 189 217 1,700  Level Los Angeles Center
Tue 01:56:30 AM 33.8942 -118.5092 233° Southwest 229 264 3,300 1,721 Climbing Los Angeles Center
Tue 01:57:31 AM 33.8303 -118.5303 195° South 268 308 5,200 2,066 Climbing Los Angeles Center
Tue 01:58:32 AM 33.7525 -118.5247 177° South 283 326 7,500 2,213 Climbing Los Angeles Center
Tue 01:59:33 AM 33.6853 -118.4844 153° Southeast 294 338 9,700 1,967 Climbing Los Angeles Center
Tue 02:00:00 AM 33.6523 -118.1540 29° Northeast  Level FlightAware Approximate
Tue 02:00:34 AM 33.6511 -118.3672 109° East 315 362 11,500  Level Los Angeles Center
Tue 02:01:35 AM 33.6436 -118.2564 95° East 341 392 13,600 1,770 Climbing Los Angeles Center
Tue 02:02:36 AM 33.6781 -118.1511 69° East 365 420 15,100 1,426 Climbing Los Angeles Center
Tue 02:03:37 AM 33.7644 -118.0728 37° Northeast 394 453 16,500 1,475 Climbing Los Angeles Center
Tue 02:04:38 AM 33.8542 -117.9925 37° Northeast 404 465 18,100 1,612 Climbing Los Angeles Center
Tue 02:05:51 AM 33.9653 -117.8917 37° Northeast 418 481 20,100 1,522 Climbing Los Angeles Center
Tue 02:06:52 AM 34.0789 -117.7869 37° Northeast 429 494 21,500 984 Climbing Los Angeles Center
Tue 02:07:53 AM 34.1667 -117.6736 47° Northeast 462 532 22,100 836 Climbing Los Angeles Center
Tue 02:08:54 AM 34.2553 -117.5536 48° Northeast 476 548 23,200 1,082 Climbing Los Angeles Center
Tue 02:09:55 AM 34.3447 -117.4292 49° Northeast 487 560 24,300 1,082 Climbing Los Angeles Center
Tue 02:10:56 AM 34.4394 -117.3008 48° Northeast 491 565 25,400 1,033 Climbing Los Angeles Center
Tue 02:11:57 AM 34.5308 -117.1736 49° Northeast 499 574 26,400 1,180 Climbing Los Angeles Center
Tue 02:12:58 AM 34.6236 -117.0456 49° Northeast 506 582 27,800 1,426 Climbing Los Angeles Center
Tue 02:13:59 AM 34.7119 -116.9206 49° Northeast 498 573 29,300 1,377 Climbing Los Angeles Center
Tue 02:15:00 AM 34.8014 -116.7969 49° Northeast 492 566 30,600 1,131 Climbing Los Angeles Center
Tue 02:16:01 AM 34.8908 -116.6717 49° Northeast 493 567 31,600 1,033 Climbing Los Angeles Center
Tue 02:17:02 AM 34.9831 -116.5469 48° Northeast 495 570 32,700 1,033 Climbing Los Angeles Center
Tue 02:18:03 AM 35.0797 -116.4267 46° Northeast 497 572 33,700 885 Climbing Los Angeles Center
Tue 02:19:04 AM 35.1756 -116.3075 45° Northeast 495 570 34,500 639 Climbing Los Angeles Center
Tue 02:20:05 AM 35.2878 -116.1642 46° Northeast 491 565 35,000 197 Climbing Los Angeles Center
Tue 02:21:06 AM 35.3861 -116.0417 45° Northeast 494 568 34,900  Descending Los Angeles Center
Tue 02:22:07 AM 35.4803 -115.9247 45° Northeast 493 567 35,000 45 Climbing Los Angeles Center
Tue 02:23:20 AM 35.5842 -115.7925 46° Northeast 488 562 35,000  Level Los Angeles Center
Tue 02:24:21 AM 35.6794 -115.6733 45° Northeast 490 564 35,000  Level Los Angeles Center
Tue 02:25:21 AM 35.7919 -115.5289 46° Northeast 488 562 35,000  Level Los Angeles Center
Tue 02:26:22 AM 35.8547 -115.3842 62° Northeast 488 562 35,000  Level Los Angeles Center
Tue 02:27:23 AM 35.8956 -115.2278 72° East 483 556 35,000  Level Los Angeles Center
Tue 02:28:24 AM 35.9331 -115.0722 73° East 479 551 35,000  Level Los Angeles Center
Tue 02:29:25 AM 35.9731 -114.9150 73° East 483 556 35,000  Level Los Angeles Center
Tue 02:30:26 AM 36.0119 -114.7586 73° East 481 554 35,000  Level Los Angeles Center
Tue 02:31:26 AM 36.0497 -114.6011 73° East 480 552 35,000  Level Los Angeles Center
Tue 02:32:27 AM 36.0878 -114.4436 73° East 480 552 35,000  Level Los Angeles Center
Tue 02:33:28 AM 36.1269 -114.2875 73° East 478 550 35,000  Level Los Angeles Center
Tue 02:34:29 AM 36.1644 -114.1297 74° East 479 551 35,000  Level Los Angeles Center
Tue 02:35:29 AM 36.2014 -113.9711 74° East 480 552 35,000  Level Los Angeles Center
Tue 02:36:30 AM 36.2400 -113.8094 73° East 488 562 35,000  Level Los Angeles Center
Tue 02:37:31 AM 36.2775 -113.6481 74° East 488 562 35,000  Level Los Angeles Center
Tue 02:38:32 AM 36.3236 -113.4533 74° East 492 566 35,000  Level Los Angeles Center
Tue 02:39:32 AM 36.3606 -113.2919 74° East 489 563 35,000  Level Los Angeles Center
Tue 02:40:33 AM 36.3989 -113.1247 74° East 491 565 35,000  Level Los Angeles Center
Tue 02:41:34 AM 36.4353 -112.9625 74° East 491 565 35,000  Level Los Angeles Center
Tue 02:42:34 AM 36.4719 -112.8006 74° East 490 564 35,000  Level Los Angeles Center
Tue 02:43:35 AM 36.5089 -112.6381 74° East 491 565 35,000  Level Los Angeles Center
Tue 02:44:36 AM 36.5450 -112.4744 75° East 493 567 35,000  Level Los Angeles Center
Tue 02:45:37 AM 36.5819 -112.3122 74° East 491 565 35,000  Level Los Angeles Center
Tue 02:46:37 AM 36.6161 -112.1506 75° East 488 562 35,000  Level Los Angeles Center
Tue 02:47:38 AM 36.6519 -111.9897 74° East 486 559 35,000  Level Los Angeles Center
Tue 02:48:38 AM 36.6858 -111.8311 75° East 480 552 35,000  Level Los Angeles Center
Tue 02:49:39 AM 36.7222 -111.6706 74° East 482 555 35,000  Level Los Angeles Center
Tue 02:50:25 AM 36.7475 -111.5447 76° East 481 554 35,000  Level Denver Center
Tue 02:51:26 AM 36.7817 -111.3842 75° East 482 555 35,000  Level Denver Center
Tue 02:52:26 AM 36.8156 -111.2242 75° East 480 552 35,000  Level Denver Center
Tue 02:53:27 AM 36.8500 -111.0636 75° East 481 554 35,000  Level Denver Center
Tue 02:54:27 AM 36.8831 -110.9031 76° East 480 552 35,000  Level Denver Center
Tue 02:55:28 AM 36.9175 -110.7411 75° East 483 556 35,000  Level Denver Center
Tue 02:56:28 AM 36.9514 -110.5800 75° East 481 554 35,000  Level Denver Center
Tue 02:57:29 AM 36.9806 -110.4192 77° East 478 550 35,000  Level Denver Center
Tue 02:58:29 AM 37.0133 -110.2575 76° East 480 552 35,000  Level Denver Center
Tue 02:59:30 AM 37.0478 -110.0914 75° East 481 554 35,000  Level Denver Center
Tue 03:00:30 AM 37.0828 -109.9103 76° East 479 551 35,000  Level Denver Center
Tue 03:01:31 AM 37.1142 -109.7542 76° East 480 552 35,000  Level Denver Center
Tue 03:02:31 AM 37.1447 -109.5964 76° East 484 557 35,000  Level Denver Center
Tue 03:03:32 AM 37.1717 -109.4089 80° East 488 562 35,000  Level Denver Center
Tue 03:04:32 AM 37.1917 -109.2467 81° East 491 565 35,000  Level Denver Center
Tue 03:05:33 AM 37.2119 -109.0822 81° East 494 568 35,000  Level Denver Center
Tue 03:06:33 AM 37.2353 -108.8903 81° East 496 571 35,000  Level Denver Center
Tue 03:07:34 AM 37.2572 -108.7258 80° East 498 573 35,000  Level Denver Center
Tue 03:08:34 AM 37.2847 -108.5586 78° East 506 582 35,000  Level Denver Center
Tue 03:09:35 AM 37.3208 -108.3989 74° East 503 579 35,000  Level Denver Center
Tue 03:10:35 AM 37.3633 -108.2097 74° East 503 579 35,000  Level Denver Center
Tue 03:11:36 AM 37.3897 -108.0747 76° East 502 578 35,000  Level Denver Center
Tue 03:12:36 AM 37.4236 -107.8836 77° East 502 578 35,000  Level Denver Center
Tue 03:13:37 AM 37.4569 -107.6958 77° East 495 570 35,000  Level Denver Center
Tue 03:14:37 AM 37.4858 -107.5333 77° East 497 572 35,000  Level Denver Center
Tue 03:15:38 AM 37.5139 -107.3719 78° East 495 570 35,000  Level Denver Center
Tue 03:16:38 AM 37.5422 -107.2100 78° East 496 571 35,000  Level Denver Center
Tue 03:17:39 AM 37.5753 -107.0236 77° East 490 564 35,000  Level Denver Center
Tue 03:18:39 AM 37.6031 -106.8606 78° East 495 570 35,000  Level Denver Center
Tue 03:19:40 AM 37.6294 -106.7003 78° East 489 563 35,000  Level Denver Center
Tue 03:20:41 AM 37.6619 -106.5114 78° East 494 568 35,000  Level Denver Center
Tue 03:21:41 AM 37.6900 -106.3492 78° East 494 568 35,000  Level Denver Center
Tue 03:22:42 AM 37.7194 -106.1686 78° East 496 571 35,000  Level Denver Center
Tue 03:23:42 AM 37.7450 -106.0047 79° East 497 572 35,000  Level Denver Center
Tue 03:24:43 AM 37.7711 -105.8411 79° East 497 572 35,000  Level Denver Center
Tue 03:25:43 AM 37.8022 -105.6508 78° East 494 568 35,000  Level Denver Center
Tue 03:26:44 AM 37.8286 -105.4872 78° East 495 570 35,000  Level Denver Center
Tue 03:27:44 AM 37.8536 -105.3239 79° East 495 570 35,000  Level Denver Center
Tue 03:28:45 AM 37.8783 -105.1614 79° East 491 565 35,000  Level Denver Center
Tue 03:29:45 AM 37.9081 -104.9700 79° East 495 570 35,000  Level Denver Center
Tue 03:30:46 AM 37.9283 -104.8344 79° East 493 567 35,000  Level Denver Center
Tue 03:31:46 AM 37.9572 -104.6458 79° East 487 560 35,000  Level Denver Center
Tue 03:32:47 AM 37.9864 -104.4542 79° East 492 566 35,000  Level Denver Center
Tue 03:33:47 AM 38.0106 -104.2917 79° East 489 563 35,000  Level Denver Center
Tue 03:34:48 AM 38.0353 -104.1278 79° East 490 564 35,000  Level Denver Center
Tue 03:35:49 AM 38.0628 -103.9342 80° East 494 568 35,000  Level Denver Center
Tue 03:36:49 AM 38.0867 -103.7681 80° East 496 571 35,000  Level Denver Center
Tue 03:37:50 AM 38.1097 -103.6019 80° East 498 573 35,000  Level Denver Center
Tue 03:38:50 AM 38.1339 -103.4364 79° East 496 571 35,000  Level Denver Center
Tue 03:39:51 AM 38.1600 -103.2428 80° East 496 571 35,000  Level Denver Center
Tue 03:40:52 AM 38.1808 -103.0814 81° East 497 572 35,000  Level Denver Center
Tue 03:41:52 AM 38.2047 -102.9153 80° East 498 573 35,000  Level Denver Center
Tue 03:42:53 AM 38.2306 -102.7217 80° East 498 573 35,000  Level Denver Center
Tue 03:43:53 AM 38.2519 -102.5547 81° East 500 575 35,000  Level Denver Center
Tue 03:44:54 AM 38.2739 -102.3889 80° East 497 572 35,000  Level Denver Center
Tue 03:45:55 AM 38.2983 -102.1942 81° East 498 573 35,000  Level Denver Center
Tue 03:46:55 AM 38.3189 -102.0267 81° East 499 574 35,000  Level Denver Center
Tue 03:47:56 AM 38.3408 -101.8564 81° East 505 581 35,000  Level Denver Center
Tue 03:48:56 AM 38.3647 -101.6600 81° East 503 579 35,000  Level Denver Center
Tue 03:49:57 AM 38.3872 -101.4911 80° East 503 579 35,000  Level Denver Center
Tue 03:50:58 AM 38.4294 -101.3286 72° East 501 577 35,000  Level Denver Center
Tue 03:52:00 AM 38.4879 -101.1712 65° Northeast  Level FlightAware Approximate
Tue 03:53:59 AM 38.5689 -100.8206 65° Northeast 502 578 35,000  Level Denver Center
Tue 03:55:00 AM 38.6117 -100.6600 71° East 499 574 35,000  Level Denver Center
Tue 03:56:00 AM 38.6647 -100.4756 70° East 495 570 35,000  Level Denver Center
Tue 03:57:01 AM 38.7128 -100.3169 69° East 497 572 35,000  Level Denver Center
Tue 03:58:02 AM 38.7611 -100.1586 69° East 498 573 35,000  Level Denver Center
Tue 03:58:37 AM 38.7931 -100.0539 69° East 495 570 35,000  Level Kansas City Center
Tue 03:59:00 AM 38.8779 -100.0984 65° Northeast  Level FlightAware Approximate
Tue 03:59:38 AM 38.8419 -99.8975 68° East 494 568 35,000  Level Kansas City Center
Tue 04:00:38 AM 38.8989 -99.7156 68° East 492 566 35,000  Level Kansas City Center
Tue 04:01:39 AM 38.9478 -99.5575 68° East 489 563 35,000  Level Kansas City Center
Tue 04:02:39 AM 38.9986 -99.3961 68° East 488 562 35,000  Level Kansas City Center
Tue 04:03:40 AM 39.0486 -99.2333 68° East 487 560 35,000  Level Kansas City Center
Tue 04:04:40 AM 39.0964 -99.0661 70° East 495 570 35,000  Level Kansas City Center
Tue 04:05:40 AM 39.1406 -98.8958 71° East 500 575 35,000  Level Kansas City Center
Tue 04:06:41 AM 39.1839 -98.7300 71° East 489 563 35,000  Level Kansas City Center
Tue 04:07:41 AM 39.2069 -98.5508 81° East 505 581 35,000  Level Kansas City Center
Tue 04:08:42 AM 39.2206 -98.3861 84° East 513 590 35,000  Level Kansas City Center
Tue 04:09:42 AM 39.2342 -98.1778 85° East 511 588 35,000  Level Kansas City Center
Tue 04:10:43 AM 39.2453 -98.0031 85° East 510 587 35,000  Level Kansas City Center
Tue 04:11:44 AM 39.2569 -97.8372 85° East 519 597 35,000  Level Kansas City Center
Tue 04:12:44 AM 39.2708 -97.6156 85° East 517 595 35,000  Level Kansas City Center
Tue 04:13:45 AM 39.2817 -97.4436 85° East 511 588 35,000  Level Kansas City Center
Tue 04:14:45 AM 39.2928 -97.2664 85° East 515 593 35,000  Level Kansas City Center
Tue 04:15:46 AM 39.3028 -97.0881 86° East 519 597 35,000  Level Kansas City Center
Tue 04:16:46 AM 39.3147 -96.8800 86° East 521 600 35,000  Level Kansas City Center
Tue 04:17:47 AM 39.3244 -96.7008 86° East 522 601 35,000  Level Kansas City Center
Tue 04:18:47 AM 39.3331 -96.5233 86° East 520 598 35,000  Level Kansas City Center
Tue 04:19:48 AM 39.3442 -96.3303 86° East 516 594 35,000  Level Kansas City Center
Tue 04:20:49 AM 39.3519 -96.1397 87° East 516 594 35,000  Level Kansas City Center
Tue 04:21:49 AM 39.3600 -95.9628 87° East 512 589 35,000  Level Kansas City Center
Tue 04:22:50 AM 39.3697 -95.7575 86° East 513 590 35,000  Level Kansas City Center
Tue 04:23:50 AM 39.3781 -95.5814 86° East 512 589 35,000  Level Kansas City Center
Tue 04:24:51 AM 39.3864 -95.3947 87° East 510 587 35,000  Level Kansas City Center
Tue 04:25:52 AM 39.3936 -95.2114 87° East 512 589 35,000  Level Kansas City Center
Tue 04:26:52 AM 39.4011 -95.0203 87° East 506 582 35,000  Level Kansas City Center
Tue 04:27:53 AM 39.4078 -94.8461 87° East 504 580 35,000  Level Kansas City Center
Tue 04:28:54 AM 39.4158 -94.6714 87° East 509 586 35,000  Level Kansas City Center
Tue 04:29:54 AM 39.4206 -94.4975 88° East 506 582 35,000  Level Kansas City Center
Tue 04:30:55 AM 39.4275 -94.2975 87° East 499 574 35,000  Level Kansas City Center
Tue 04:31:55 AM 39.4328 -94.1267 88° East 496 571 35,000  Level Kansas City Center
Tue 04:32:56 AM 39.4381 -93.9564 88° East 496 571 35,000  Level Kansas City Center
Tue 04:33:57 AM 39.4436 -93.7586 88° East 491 565 35,000  Level Kansas City Center
Tue 04:34:57 AM 39.4506 -93.5953 87° East 487 560 35,000  Level Kansas City Center
Tue 04:35:58 AM 39.4544 -93.4217 88° East 488 562 35,000  Level Kansas City Center
Tue 04:36:59 AM 39.4581 -93.2494 88° East 486 559 35,000  Level Kansas City Center
Tue 04:37:59 AM 39.4625 -93.0783 88° East 484 557 35,000  Level Kansas City Center
Tue 04:39:00 AM 39.4661 -92.9044 88° East 488 562 35,000  Level Kansas City Center
Tue 04:40:01 AM 39.4708 -92.6958 88° East 489 563 35,000  Level Kansas City Center
Tue 04:41:01 AM 39.4733 -92.5217 89° East 490 564 35,000  Level Kansas City Center
Tue 04:42:02 AM 39.4758 -92.3503 89° East 487 560 35,000  Level Kansas City Center
Tue 04:43:03 AM 39.4797 -92.1758 88° East 488 562 35,000  Level Kansas City Center
Tue 04:44:03 AM 39.4808 -91.9983 89° East 494 568 35,000  Level Kansas City Center
Tue 04:45:04 AM 39.4842 -91.8186 89° East 502 578 35,000  Level Kansas City Center
Tue 04:46:04 AM 39.4864 -91.6294 89° East 503 579 35,000  Level Kansas City Center
Tue 04:47:05 AM 39.4889 -91.4472 89° East 505 581 35,000  Level Kansas City Center
Tue 04:48:06 AM 39.4894 -91.2642 90° East 508 585 35,000  Level Kansas City Center
Tue 04:49:06 AM 39.4925 -91.0811 89° East 508 585 35,000  Level Kansas City Center
Tue 04:50:07 AM 39.4939 -90.8989 89° East 506 582 35,000  Level Kansas City Center
Tue 04:51:07 AM 39.4939 -90.7169 90° East 505 581 35,000  Level Kansas City Center
Tue 04:52:08 AM 39.4933 -90.5353 90° East 505 581 35,000  Level Kansas City Center
Tue 04:53:09 AM 39.4944 -90.3517 89° East 507 583 35,000  Level Kansas City Center
Tue 04:54:09 AM 39.4939 -90.1658 90° East 511 588 35,000  Level Kansas City Center
Tue 04:55:10 AM 39.4925 -89.9800 90° East 515 593 35,000  Level Kansas City Center
Tue 04:56:10 AM 39.4917 -89.7939 90° East 515 593 35,000  Level Kansas City Center
Tue 04:57:11 AM 39.4906 -89.6122 90° East 510 587 35,000  Level Kansas City Center
Tue 04:58:12 AM 39.4892 -89.4286 91° East 509 586 35,000  Level Kansas City Center
Tue 04:59:12 AM 39.4867 -89.2231 91° East 505 581 35,000  Level Kansas City Center
Tue 05:00:13 AM 39.4856 -89.0419 90° East 504 580 35,000  Level Kansas City Center
Tue 05:01:13 AM 39.4844 -88.8633 90° East 502 578 35,000  Level Kansas City Center
Tue 05:02:14 AM 39.4811 -88.6864 91° East 497 572 35,000  Level Kansas City Center
Tue 05:03:15 AM 39.4803 -88.5097 90° East 491 565 35,000  Level Kansas City Center
Tue 05:04:15 AM 39.4753 -88.3336 92° East 489 563 35,000  Level Kansas City Center
Tue 05:05:16 AM 39.4722 -88.1514 91° East 496 571 35,000  Level Kansas City Center
Tue 05:06:17 AM 39.4708 -87.9694 91° East 501 577 35,000  Level Kansas City Center
Tue 05:07:17 AM 39.4667 -87.7931 92° East 495 570 35,000  Level Kansas City Center
Tue 05:08:18 AM 39.4617 -87.6175 92° East 489 563 35,000  Level Kansas City Center
Tue 05:09:48 AM 39.4553 -87.3578 92° East 488 562 35,000  Level Indianapolis Center
Tue 05:10:49 AM 39.4503 -87.1858 92° East 483 556 35,000  Level Indianapolis Center
Tue 05:11:49 AM 39.4461 -87.0122 92° East 485 558 35,000  Level Indianapolis Center
Tue 05:12:50 AM 39.4397 -86.8406 93° East 483 556 35,000  Level Indianapolis Center
Tue 05:13:51 AM 39.4339 -86.6672 92° East 487 560 35,000  Level Indianapolis Center
Tue 05:14:52 AM 39.4286 -86.4944 92° East 487 560 35,000  Level Indianapolis Center
Tue 05:15:53 AM 39.4222 -86.3239 93° East 485 558 35,000  Level Indianapolis Center
Tue 05:16:53 AM 39.4150 -86.1175 93° East 487 560 35,000  Level Indianapolis Center
Tue 05:17:54 AM 39.4097 -85.9469 92° East 482 555 35,000  Level Indianapolis Center
Tue 05:18:55 AM 39.4025 -85.7736 93° East 485 558 35,000  Level Indianapolis Center
Tue 05:19:56 AM 39.3956 -85.6022 93° East 483 556 35,000  Level Indianapolis Center
Tue 05:20:56 AM 39.3886 -85.4306 93° East 483 556 35,000  Level Indianapolis Center
Tue 05:21:57 AM 39.3814 -85.2569 93° East 485 558 35,000  Level Indianapolis Center
Tue 05:22:58 AM 39.3728 -85.0850 94° East 483 556 35,000  Level Indianapolis Center
Tue 05:23:59 AM 39.3658 -84.9133 93° East 481 554 35,000  Level Indianapolis Center
Tue 05:24:59 AM 39.3564 -84.7281 94° East 486 559 35,000  Level Indianapolis Center
Tue 05:26:00 AM 39.3472 -84.5539 94° East 484 557 35,000  Level Indianapolis Center
Tue 05:27:01 AM 39.3389 -84.3783 93° East 487 560 35,000  Level Indianapolis Center
Tue 05:28:02 AM 39.3289 -84.2031 94° East 486 559 35,000  Level Indianapolis Center
Tue 05:29:02 AM 39.3211 -84.0294 93° East 483 556 35,000  Level Indianapolis Center
Tue 05:30:03 AM 39.3111 -83.8558 94° East 484 557 35,000  Level Indianapolis Center
Tue 05:31:04 AM 39.3006 -83.6808 94° East 485 558 35,000  Level Indianapolis Center
Tue 05:32:04 AM 39.2894 -83.5067 95° East 487 560 35,000  Level Indianapolis Center
Tue 05:33:05 AM 39.2794 -83.3328 94° East 486 559 35,000  Level Indianapolis Center
Tue 05:34:06 AM 39.2781 -83.1586 91° East 486 559 35,000  Level Indianapolis Center
Tue 05:35:06 AM 39.2950 -82.9847 83° East 486 559 35,000  Level Indianapolis Center
Tue 05:36:07 AM 39.3103 -82.8128 83° East 482 555 35,000  Level Indianapolis Center
Tue 05:37:08 AM 39.3264 -82.6400 83° East 483 556 35,000  Level Indianapolis Center
Tue 05:38:08 AM 39.3444 -82.4664 82° East 484 557 35,000  Level Indianapolis Center
Tue 05:39:09 AM 39.3594 -82.2936 84° East 482 555 35,000  Level Indianapolis Center
Tue 05:40:10 AM 39.3758 -82.1186 83° East 488 562 35,000  Level Indianapolis Center
Tue 05:41:10 AM 39.3922 -81.9456 83° East 485 558 35,000  Level Indianapolis Center
Tue 05:42:11 AM 39.4067 -81.7692 84° East 489 563 35,000  Level Indianapolis Center
Tue 05:43:11 AM 39.4219 -81.5950 83° East 487 560 35,000  Level Indianapolis Center
Tue 05:44:12 AM 39.4369 -81.4186 84° East 490 564 35,000  Level Indianapolis Center
Tue 05:45:13 AM 39.4517 -81.2433 84° East 489 563 35,000  Level Indianapolis Center
Tue 05:46:13 AM 39.4661 -81.0678 84° East 488 562 35,000  Level Indianapolis Center
Tue 05:47:14 AM 39.4792 -80.8922 84° East 488 562 35,000  Level Indianapolis Center
Tue 05:48:14 AM 39.4931 -80.7189 84° East 485 558 35,000  Level Indianapolis Center
Tue 05:49:15 AM 39.5064 -80.5428 84° East 490 564 35,000  Level Indianapolis Center
Tue 05:50:16 AM 39.5203 -80.3658 84° East 492 566 35,000  Level Indianapolis Center
Tue 05:51:06 AM 39.5333 -80.2117 84° East 495 570 35,000  Level Washington Center
Tue 05:52:04 AM 39.5486 -80.0325 84° East 495 570 35,000 -1,400 Level Washington Center
Tue 05:53:06 AM 39.5550 -79.8525 87° East 495 570 32,200 -3,124 Descending Washington Center
Tue 05:54:05 AM 39.5258 -79.6758 102° East 495 570 28,700 -3,223 Descending Washington Center
Tue 05:55:07 AM 39.4961 -79.4994 102° East 500 575 25,700 -2,521 Descending Washington Center
Tue 05:56:04 AM 39.4661 -79.3336 103° East 492 566 23,700 -1,664 Descending Washington Center
Tue 05:57:06 AM 39.4294 -79.1597 105° East 466 536 22,400 -1,475 Descending Washington Center
Tue 05:58:06 AM 39.4044 -79.0161 103° East 438 504 20,700 -1,780 Descending Washington Center
Tue 05:59:04 AM 39.3772 -78.8753 104° East 413 475 18,900 -1,700 Descending Washington Center
Tue 06:00:06 AM 39.3558 -78.7400 102° East 401 461 17,300 -1,623 Descending Washington Center
Tue 06:01:06 AM 39.3319 -78.6103 103° East 385 443 15,600 -1,785 Descending Washington Center
Tue 06:02:07 AM 39.3061 -78.4803 104° East 380 437 13,700 -1,815 Descending Washington Center
Tue 06:03:05 AM 39.2778 -78.3533 106° East 375 432 12,000 -1,300 Descending Washington Center
Tue 06:04:07 AM 39.2258 -78.2494 123° Southeast 357 411 11,100 -893 Descending Washington Center
Tue 06:05:06 AM 39.1778 -78.1594 125° Southeast 334 384 10,200 -807 Descending Washington Center
Tue 06:06:06 AM 39.1297 -78.0694 125° Southeast 315 362 9,500 -787 Descending Washington Center
Tue 06:07:08 AM 39.0794 -77.9767 125° Southeast 315 362 8,600 -1,100 Descending Washington Center
Tue 06:08:06 AM 39.0311 -77.8869 125° Southeast 315 362 7,300 -814 Descending Washington Center
Tue 06:09:06 AM 38.9828 -77.7972 125° Southeast 308 354 7,000 -417 Descending Washington Center
Tue 06:11:13 AM 38.9167 -77.6000 113° Southeast 295 339 6,000 -321 Descending Potomac TRACON
Tue 06:12:13 AM 38.8500 -77.5667 159° South 248 285 6,000  Level Potomac TRACON
Tue 06:13:13 AM 38.7833 -77.5833 191° South 240 276 6,000 -579 Level Potomac TRACON
Tue 06:14:07 AM 38.7167 -77.5833 180° South 236 272 4,900 -1,053 Descending Potomac TRACON
Tue 06:15:07 AM 38.6833 -77.5333 130° Southeast 254 292 4,000 -750 Descending Potomac TRACON
Tue 06:16:07 AM 38.6833 -77.4500 90° East 234 269 3,400 -800 Descending Potomac TRACON
Tue 06:17:07 AM 38.7333 -77.4333 15° North 189 217 2,400 -700 Descending Potomac TRACON
Tue 06:18:07 AM 38.8000 -77.4333 360° North 185 213 2,000 -250 Descending Potomac TRACON
Tue 06:19:07 AM 38.8500 -77.4333 360° North 181 208 1,900 -450 Descending Potomac TRACON
Tue 06:20:07 AM 38.8833 -77.4333 360° North 145 167 1,100 -800 Descending Potomac TRACON
Tue 06:22:00 AM 38.9333 -77.4500 345° North  Level FlightAware Approximate

Login

Don't have an account? Register now (free) for customized features, flight alerts, and more!